To NAV CANADA Home Page Login to a new session Search on AWWS site Feedback and Comments Disclaimer Vers la page française équivalente Tips FAQ What's new on the site To the Forecasts and Observations / NOTAM section To "File a Flight Plan" website Publications and other links Update of the User's profile FIC Telephone Numbers My Weather Data Folder Route Weather Data Regional Weather Data Local Weather Data To the Forecasts and Observations / NOTAM section
Request Generated 07/29/2015 at 17:50:30 UTC . Weather information available at that time is displayed.

METAR/TAF

MONT-JOLI/QC    

METAR CYYY 291700Z 00000KT 30SM FEW035 SCT250 22/13 A2992 RMK CU1CI3
SLP133 DENSITY ALT 1000FT=
METAR CYYY 291600Z 27006KT 230V330 30SM FEW025 SCT250 20/12 A2994 RMK
CU1CI3 SLP140 DENSITY ALT 800FT=
METAR CYYY 291500Z 27012KT 30SM FEW020 SCT250 19/13 A2994 RMK CU1CI2
SLP141 DENSITY ALT 600FT=

TAF CYYY 291338Z 2914/3002 27008KT P6SM FEW100
BECMG 2914/2916 30008KT
BECMG 2918/2920 07008KT
FM300000 VRB03KT P6SM SKC
RMK NXT FCST BY 292000Z=
Your time UTC time
Weather data provided by Environment Canada and NAV CANADA